createdAt,value
2022-10-01T00:02:01.194Z,80.58
2022-10-01T00:04:30.987Z,80.54
2022-10-01T00:07:04.703Z,81.00
2022-10-01T00:09:32.336Z,81.15
2022-10-01T00:11:59.806Z,80.36
2022-10-01T00:14:27.564Z,80.36
2022-10-01T00:16:54.522Z,80.59
2022-10-01T00:19:22.666Z,80.52
2022-10-01T00:21:49.070Z,80.53
2022-10-01T00:24:15.683Z,79.99
2022-10-01T00:26:42.417Z,80.29
2022-10-01T00:29:12.861Z,80.54
2022-10-01T00:31:39.967Z,79.88
2022-10-01T00:34:06.577Z,79.94
2022-10-01T00:36:34.046Z,80.42
2022-10-01T00:39:01.023Z,80.41
2022-10-01T00:41:34.187Z,79.96
2022-10-01T00:44:03.699Z,80.48
2022-10-01T00:46:41.517Z,80.07
2022-10-01T00:49:21.038Z,80.07
2022-10-01T00:51:52.494Z,80.50
2022-10-01T00:54:24.388Z,80.34
2022-10-01T00:56:56.143Z,80.59
2022-10-01T00:59:22.769Z,80.71
2022-10-01T01:01:49.356Z,80.50
2022-10-01T01:04:18.744Z,80.47
2022-10-01T01:06:55.779Z,80.52
2022-10-01T01:09:27.456Z,80.56
2022-10-01T01:11:57.817Z,80.30
2022-10-01T01:14:39.448Z,80.48
2022-10-01T01:17:17.937Z,81.59
2022-10-01T01:20:13.842Z,80.93
2022-10-01T01:22:48.373Z,80.85
2022-10-01T01:25:22.194Z,80.83
2022-10-01T01:28:14.205Z,81.17
2022-10-01T01:30:41.727Z,80.79
2022-10-01T01:33:15.680Z,80.66
2022-10-01T01:35:46.762Z,81.31
2022-10-01T01:38:19.263Z,81.61
2022-10-01T01:40:51.388Z,81.55
2022-10-01T01:43:23.254Z,81.49
2022-10-01T01:45:52.273Z,81.32
2022-10-01T01:48:18.868Z,81.43
2022-10-01T01:50:55.450Z,81.70
2022-10-01T01:53:21.971Z,81.46
2022-10-01T01:55:49.357Z,81.36
2022-10-01T01:58:20.212Z,81.30
2022-10-01T02:00:52.324Z,81.04
2022-10-01T02:03:25.990Z,81.61
2022-10-01T02:06:10.273Z,81.37
2022-10-01T02:08:47.658Z,81.18
2022-10-01T02:11:28.526Z,81.27
2022-10-01T02:14:03.951Z,81.69
2022-10-01T02:16:38.600Z,81.33
2022-10-01T02:19:17.280Z,81.46
2022-10-01T02:21:57.952Z,81.03
2022-10-01T02:25:03.072Z,81.56
2022-10-01T02:27:33.967Z,81.10
2022-10-01T02:30:07.812Z,80.90
2022-10-01T02:32:39.451Z,81.08
2022-10-01T02:35:12.697Z,81.13
2022-10-01T02:37:42.078Z,80.96
2022-10-01T02:40:15.902Z,81.25
2022-10-01T02:42:46.702Z,81.37
2022-10-01T02:45:16.867Z,81.19
2022-10-01T02:47:50.350Z,80.95
2022-10-01T02:50:16.872Z,81.08
2022-10-01T02:52:53.615Z,81.26
2022-10-01T02:55:28.736Z,81.19
2022-10-01T02:57:56.536Z,81.27
2022-10-01T03:00:23.270Z,80.99
2022-10-01T03:02:50.257Z,81.58
2022-10-01T03:05:17.522Z,81.08
2022-10-01T03:07:44.494Z,81.08
2022-10-01T03:10:11.973Z,81.64
2022-10-01T03:12:45.097Z,81.59
2022-10-01T03:15:13.530Z,81.18
2022-10-01T03:17:40.309Z,81.22
2022-10-01T03:20:08.229Z,81.17
2022-10-01T03:22:34.756Z,81.07
2022-10-01T03:25:01.205Z,81.24
2022-10-01T03:27:27.705Z,81.18
2022-10-01T03:29:54.260Z,81.45
2022-10-01T03:32:20.721Z,81.05
2022-10-01T03:34:47.702Z,80.91
2022-10-01T03:37:14.277Z,80.87
2022-10-01T03:39:40.703Z,81.05
2022-10-01T03:42:07.084Z,81.06
2022-10-01T03:44:34.061Z,81.03
2022-10-01T03:47:00.523Z,81.00
2022-10-01T03:49:27.823Z,81.20
2022-10-01T03:51:54.275Z,81.21
2022-10-01T03:54:21.546Z,80.90
2022-10-01T03:56:48.946Z,81.22
2022-10-01T03:59:15.874Z,81.05
2022-10-01T04:01:42.379Z,81.13
2022-10-01T04:04:09.305Z,80.53
2022-10-01T04:06:35.628Z,80.49
2022-10-01T04:09:02.071Z,80.90
2022-10-01T04:11:28.597Z,81.37
2022-10-01T04:13:57.716Z,80.86
2022-10-01T04:18:58.735Z,81.14
2022-10-01T04:21:25.246Z,81.29
2022-10-01T04:23:52.811Z,81.06
2022-10-01T04:26:19.186Z,80.71
2022-10-01T04:28:46.713Z,81.04
2022-10-01T04:31:38.151Z,80.64
2022-10-01T04:34:05.103Z,80.57
2022-10-01T04:36:32.047Z,80.94
2022-10-01T04:43:59.662Z,80.37
2022-10-01T04:46:26.184Z,80.87
2022-10-01T04:48:52.597Z,80.74
2022-10-01T04:51:18.989Z,80.96
2022-10-01T04:53:45.377Z,80.54
2022-10-01T04:56:11.769Z,80.49
2022-10-01T04:58:38.447Z,80.87
2022-10-01T05:01:04.915Z,80.40
2022-10-01T05:03:31.577Z,79.89
2022-10-01T05:05:58.006Z,79.67
2022-10-01T05:08:24.332Z,79.78
2022-10-01T05:10:50.724Z,80.05
2022-10-01T05:13:17.059Z,80.32
2022-10-01T05:15:44.289Z,79.77
2022-10-01T05:18:10.678Z,80.23
2022-10-01T05:20:37.873Z,79.60
2022-10-01T05:23:04.369Z,79.84
2022-10-01T05:25:30.867Z,79.66
2022-10-01T05:28:05.005Z,79.74
2022-10-01T05:30:32.724Z,79.02
2022-10-01T05:33:02.159Z,79.48
2022-10-01T05:35:29.455Z,79.78
2022-10-01T05:37:57.642Z,79.82
2022-10-01T05:40:27.263Z,79.73
2022-10-01T05:42:54.892Z,78.79
2022-10-01T05:45:22.758Z,79.15
2022-10-01T05:47:56.048Z,79.03
2022-10-01T05:50:23.955Z,79.26
2022-10-01T05:52:53.294Z,79.21
2022-10-01T05:55:20.384Z,79.17
2022-10-01T05:58:01.987Z,79.41
2022-10-01T06:00:29.528Z,78.31
2022-10-01T06:02:57.814Z,79.00
2022-10-01T06:05:24.969Z,78.48
2022-10-01T06:07:52.023Z,78.93
2022-10-01T06:10:18.691Z,78.65
2022-10-01T06:12:45.825Z,78.77
2022-10-01T06:15:12.977Z,77.81
2022-10-01T06:17:44.696Z,78.17
2022-10-01T06:20:19.282Z,78.49
2022-10-01T06:22:54.014Z,78.23
2022-10-01T06:25:21.084Z,78.31
2022-10-01T06:27:57.763Z,78.15
2022-10-01T06:30:35.502Z,78.68
2022-10-01T06:33:13.194Z,79.00
2022-10-01T06:35:42.798Z,78.44
2022-10-01T06:38:10.067Z,78.67
2022-10-01T06:40:37.057Z,78.78
2022-10-01T06:43:03.924Z,78.72
2022-10-01T06:45:31.227Z,78.95
2022-10-01T06:48:02.474Z,78.68
2022-10-01T06:50:29.821Z,78.34
2022-10-01T06:52:56.990Z,78.94
2022-10-01T06:55:28.982Z,78.28
2022-10-01T06:58:06.321Z,78.96
2022-10-01T07:00:35.146Z,78.41
2022-10-01T07:03:03.773Z,78.37
2022-10-01T07:05:30.475Z,79.20
2022-10-01T07:07:56.855Z,79.41
2022-10-01T07:10:24.337Z,78.72
2022-10-01T07:12:50.928Z,78.58
2022-10-01T07:15:19.255Z,79.43
2022-10-01T07:17:48.902Z,79.67
2022-10-01T07:20:20.534Z,79.09
2022-10-01T07:22:48.367Z,78.99
2022-10-01T07:25:15.145Z,78.90
2022-10-01T07:27:41.606Z,79.86
2022-10-01T07:30:08.474Z,79.41
2022-10-01T07:32:35.316Z,79.62
2022-10-01T07:35:02.737Z,80.22
2022-10-01T07:37:30.195Z,79.83
2022-10-01T07:40:07.520Z,79.92
2022-10-01T07:42:38.650Z,79.52
2022-10-01T07:45:22.228Z,79.74
2022-10-01T07:47:54.384Z,80.26
2022-10-01T07:50:21.820Z,80.27
2022-10-01T07:52:59.579Z,79.95
2022-10-01T07:55:31.122Z,80.54
2022-10-01T07:58:03.776Z,80.96
2022-10-01T08:00:34.050Z,79.88
2022-10-01T08:03:01.298Z,81.03
2022-10-01T08:05:31.562Z,80.51
2022-10-01T08:08:04.005Z,80.37
2022-10-01T08:10:41.903Z,80.22
2022-10-01T08:13:17.246Z,80.74
2022-10-01T08:15:53.406Z,81.06
2022-10-01T08:18:33.815Z,81.32
2022-10-01T08:21:04.746Z,80.80
2022-10-01T08:23:35.817Z,80.93
2022-10-01T08:26:08.014Z,80.89
2022-10-01T08:28:36.222Z,80.84
2022-10-01T08:31:07.865Z,80.94
2022-10-01T08:33:34.993Z,80.95
2022-10-01T08:36:02.860Z,81.41
2022-10-01T08:38:29.295Z,81.32
2022-10-01T08:40:57.311Z,81.11
2022-10-01T08:43:29.998Z,81.04
2022-10-01T08:46:00.951Z,81.48
2022-10-01T08:48:39.553Z,80.95
2022-10-01T08:51:11.680Z,81.19
2022-10-01T08:53:45.404Z,81.62
2022-10-01T08:56:23.984Z,81.42
2022-10-01T08:58:59.721Z,81.36
2022-10-01T09:01:27.163Z,81.57
2022-10-01T09:03:54.064Z,81.53
2022-10-01T09:06:26.356Z,81.80
2022-10-01T09:09:28.307Z,81.57
2022-10-01T09:12:18.991Z,82.41
2022-10-01T09:15:22.884Z,81.99
2022-10-01T09:17:55.170Z,82.21
2022-10-01T09:20:33.837Z,81.64
2022-10-01T09:23:25.232Z,82.75
2022-10-01T09:25:51.730Z,82.53
2022-10-01T09:28:24.738Z,82.92
2022-10-01T09:31:06.616Z,82.36
2022-10-01T09:33:48.016Z,82.62
2022-10-01T09:36:17.567Z,82.44
2022-10-01T09:38:48.318Z,81.97
2022-10-01T09:41:14.771Z,82.56
2022-10-01T09:43:43.593Z,82.34
2022-10-01T09:46:14.988Z,81.98
2022-10-01T09:48:56.836Z,83.01
2022-10-01T09:51:40.056Z,82.98
2022-10-01T09:54:20.814Z,82.32
2022-10-01T09:57:11.083Z,83.27
2022-10-01T09:59:45.593Z,82.42
2022-10-01T10:02:24.431Z,83.08
2022-10-01T10:05:05.384Z,82.66
2022-10-01T10:07:34.684Z,82.68
2022-10-01T10:10:16.989Z,82.77
2022-10-01T10:12:44.097Z,83.30
2022-10-01T10:15:16.963Z,82.88
2022-10-01T10:17:46.229Z,83.73
2022-10-01T10:20:23.933Z,83.28
2022-10-01T10:22:50.363Z,83.08
2022-10-01T10:25:22.553Z,83.74
2022-10-01T10:27:55.452Z,82.91
2022-10-01T10:30:26.457Z,83.86
2022-10-01T10:33:02.077Z,83.28
2022-10-01T10:35:28.894Z,83.77
2022-10-01T10:37:57.576Z,83.46
2022-10-01T10:40:40.017Z,83.36
2022-10-01T10:43:06.625Z,83.73
2022-10-01T10:45:38.786Z,83.37
2022-10-01T10:48:11.857Z,83.70
2022-10-01T10:50:40.935Z,83.01
2022-10-01T10:53:22.725Z,84.12
2022-10-01T10:56:01.099Z,83.29
2022-10-01T10:58:42.295Z,83.70
2022-10-01T11:01:13.508Z,83.17
2022-10-01T11:03:48.297Z,83.54
2022-10-01T11:06:18.555Z,83.86
2022-10-01T11:08:57.059Z,83.13
2022-10-01T11:11:55.513Z,83.25
2022-10-01T11:14:39.560Z,82.64
2022-10-01T11:17:21.006Z,83.04
2022-10-01T11:19:59.271Z,83.42
2022-10-01T11:22:31.764Z,83.08
2022-10-01T11:25:17.066Z,83.71
2022-10-01T11:28:00.864Z,83.42
2022-10-01T11:30:57.570Z,83.75
2022-10-01T11:33:45.024Z,83.50
2022-10-01T11:37:01.222Z,82.91
2022-10-01T11:39:30.016Z,83.73
2022-10-01T11:42:02.573Z,82.92
2022-10-01T11:44:35.108Z,84.31
2022-10-01T11:47:14.108Z,83.06
2022-10-01T11:49:55.769Z,83.33
2022-10-01T11:52:40.848Z,84.12
2022-10-01T11:55:32.208Z,83.72
2022-10-01T11:58:26.060Z,82.99
2022-10-01T12:01:02.213Z,83.76
2022-10-01T12:03:37.526Z,84.12
2022-10-01T12:06:09.351Z,83.88
2022-10-01T12:08:38.108Z,83.44
2022-10-01T12:11:26.818Z,83.57
2022-10-01T12:14:08.991Z,83.47
2022-10-01T12:17:12.080Z,84.15
2022-10-01T12:19:42.675Z,83.60
2022-10-01T12:22:24.558Z,83.61
2022-10-01T12:24:52.379Z,83.52
2022-10-01T12:27:44.394Z,83.12
2022-10-01T12:30:15.620Z,83.56
2022-10-01T12:33:10.611Z,82.86
2022-10-01T12:36:00.395Z,83.22
2022-10-01T12:38:26.779Z,82.36
2022-10-01T12:41:02.319Z,82.90
2022-10-01T12:43:51.232Z,82.43
2022-10-01T12:47:02.681Z,82.38
2022-10-01T12:49:58.439Z,82.68
2022-10-01T12:52:50.035Z,82.52
2022-10-01T12:55:29.330Z,82.84
2022-10-01T12:58:36.706Z,82.51
2022-10-01T13:01:23.845Z,82.59
2022-10-01T13:04:12.825Z,82.01
2022-10-01T13:06:42.339Z,82.03
2022-10-01T13:09:08.667Z,81.73
2022-10-01T13:12:01.515Z,81.50
2022-10-01T13:14:28.221Z,81.46
2022-10-01T13:17:12.075Z,80.74
2022-10-01T13:19:51.103Z,80.68
2022-10-01T13:22:22.947Z,81.13
2022-10-01T13:25:20.276Z,81.12
2022-10-01T13:27:48.872Z,81.06
2022-10-01T13:30:27.558Z,81.43
2022-10-01T13:33:01.008Z,81.27
2022-10-01T13:35:36.492Z,81.29
2022-10-01T13:38:18.086Z,80.98
2022-10-01T13:40:44.926Z,80.83
2022-10-01T13:43:16.720Z,80.68
2022-10-01T13:45:45.974Z,80.30
2022-10-01T13:48:20.209Z,80.74
2022-10-01T13:51:06.739Z,80.25
2022-10-01T13:53:47.270Z,80.40
2022-10-01T13:56:29.828Z,80.11
2022-10-01T13:58:56.376Z,80.01
2022-10-01T14:01:24.269Z,80.11
2022-10-01T14:03:53.917Z,80.25
2022-10-01T14:06:32.773Z,80.24
2022-10-01T14:09:33.897Z,80.05
2022-10-01T14:12:29.533Z,80.30
2022-10-01T14:15:19.038Z,79.94
2022-10-01T14:17:59.727Z,80.04
2022-10-01T14:20:37.014Z,79.67
2022-10-01T14:23:14.104Z,79.60
2022-10-01T14:26:17.074Z,79.29
2022-10-01T14:29:12.133Z,79.52
2022-10-01T14:31:54.039Z,79.11
2022-10-01T14:34:39.432Z,79.24
2022-10-01T14:37:18.272Z,79.42
2022-10-01T14:40:04.457Z,79.06
2022-10-01T14:43:06.746Z,78.85
2022-10-01T14:46:03.655Z,78.69
2022-10-01T14:48:41.509Z,78.94
2022-10-01T14:51:26.151Z,78.89
2022-10-01T14:53:59.379Z,78.32
2022-10-01T14:59:20.007Z,78.40
2022-10-01T15:02:06.871Z,78.39
2022-10-01T15:04:38.473Z,78.31
2022-10-01T15:07:17.181Z,78.52
2022-10-01T15:09:56.576Z,78.17
2022-10-01T15:12:51.897Z,78.87
2022-10-01T15:15:33.119Z,78.50
2022-10-01T15:18:05.907Z,78.67
2022-10-01T15:20:33.122Z,78.66
2022-10-01T15:23:11.008Z,78.68
2022-10-01T15:25:52.155Z,78.49
2022-10-01T15:28:36.308Z,78.14
2022-10-01T15:31:08.151Z,78.40
2022-10-01T15:33:46.244Z,78.41
2022-10-01T15:36:20.161Z,78.28
2022-10-01T15:42:33.958Z,78.08
2022-10-01T15:45:15.024Z,77.72
2022-10-01T15:48:03.085Z,77.87
2022-10-01T15:50:42.054Z,77.96
2022-10-01T15:53:26.826Z,77.53
2022-10-01T15:55:58.971Z,77.80
2022-10-01T15:58:35.610Z,78.13
2022-10-01T16:01:12.312Z,78.29
2022-10-01T16:03:42.256Z,78.19
2022-10-01T16:06:18.925Z,77.58
2022-10-01T16:09:06.052Z,77.57
2022-10-01T16:11:58.237Z,77.88
2022-10-01T16:14:36.602Z,77.77
2022-10-01T16:17:18.415Z,77.65
2022-10-01T16:19:48.587Z,77.46
2022-10-01T16:22:19.287Z,77.80
2022-10-01T16:24:51.488Z,77.31
2022-10-01T16:27:29.898Z,77.46
2022-10-01T16:30:12.091Z,77.65
2022-10-01T16:32:39.633Z,77.70
2022-10-01T16:35:26.855Z,77.62
2022-10-01T16:37:56.777Z,77.95
2022-10-01T16:40:31.938Z,77.73
2022-10-01T16:43:00.141Z,77.46
2022-10-01T16:45:33.469Z,77.73
2022-10-01T16:48:00.545Z,77.42
2022-10-01T16:50:27.050Z,77.47
2022-10-01T16:52:55.463Z,77.37
2022-10-01T16:55:29.726Z,77.19
2022-10-01T16:57:56.140Z,77.95
2022-10-01T17:00:25.648Z,77.53
2022-10-01T17:02:53.449Z,77.67
2022-10-01T17:05:28.256Z,76.90
2022-10-01T17:07:58.049Z,77.68
2022-10-01T17:10:24.723Z,77.77
2022-10-01T17:12:51.238Z,77.95
2022-10-01T17:15:23.149Z,78.00
2022-10-01T17:17:49.652Z,77.62
2022-10-01T17:20:16.401Z,77.84
2022-10-01T17:22:43.306Z,77.40
2022-10-01T17:25:21.507Z,77.90
2022-10-01T17:27:47.970Z,78.02
2022-10-01T17:30:14.772Z,77.95
2022-10-01T17:32:42.858Z,77.93
2022-10-01T17:35:11.027Z,77.51
2022-10-01T17:37:38.051Z,78.12
2022-10-01T17:40:06.135Z,78.26
2022-10-01T17:42:34.445Z,78.27
2022-10-01T17:45:01.749Z,77.99
2022-10-01T17:47:28.679Z,77.82
2022-10-01T17:49:55.397Z,77.75
2022-10-01T17:52:21.755Z,78.30
2022-10-01T17:54:48.273Z,78.19
2022-10-01T17:57:14.666Z,78.01
2022-10-01T17:59:41.033Z,78.34
2022-10-01T18:02:29.599Z,78.25
2022-10-01T18:04:54.261Z,78.14
2022-10-01T18:07:22.312Z,78.59
2022-10-01T18:09:48.690Z,78.38
2022-10-01T18:12:15.154Z,78.54
2022-10-01T18:14:41.617Z,78.43
2022-10-01T18:17:08.054Z,78.50
2022-10-01T18:22:21.076Z,78.71
2022-10-01T18:24:47.454Z,78.69
2022-10-01T18:30:15.676Z,78.94
2022-10-01T18:32:52.401Z,78.75
2022-10-01T18:35:39.007Z,78.23
2022-10-01T18:39:24.588Z,78.49
2022-10-01T18:41:48.499Z,78.47
2022-10-01T18:44:46.828Z,78.64
2022-10-01T18:47:33.892Z,79.52
2022-10-01T18:50:12.152Z,78.68
2022-10-01T18:53:02.881Z,79.05
2022-10-01T18:55:49.046Z,79.43
2022-10-01T18:58:34.940Z,79.22
2022-10-01T19:01:45.983Z,79.76
2022-10-01T19:08:12.977Z,80.36
2022-10-01T19:10:50.580Z,80.19
2022-10-01T19:13:38.463Z,79.95
2022-10-01T19:16:24.434Z,80.34
2022-10-01T19:19:11.725Z,80.61
2022-10-01T19:21:53.525Z,80.36
2022-10-01T19:24:47.738Z,81.21
2022-10-01T19:27:30.127Z,80.37
2022-10-01T19:30:00.552Z,80.43
2022-10-01T19:36:03.180Z,80.86
2022-10-01T19:38:43.961Z,81.33
2022-10-01T19:41:56.554Z,81.29
2022-10-01T19:44:41.603Z,81.49
2022-10-01T19:47:43.703Z,80.63
2022-10-01T19:50:32.143Z,81.16
2022-10-01T19:53:01.343Z,81.19
2022-10-01T19:55:32.971Z,81.34
2022-10-01T19:58:14.778Z,81.60
2022-10-01T20:00:42.613Z,81.32
2022-10-01T20:03:13.994Z,82.02
2022-10-01T20:06:10.252Z,81.26
2022-10-01T20:08:45.703Z,81.76
2022-10-01T20:11:19.014Z,81.52
2022-10-01T20:14:04.070Z,81.81
2022-10-01T20:16:47.696Z,82.41
2022-10-01T20:19:30.804Z,81.76
2022-10-01T20:22:10.778Z,81.26
2022-10-01T20:25:07.628Z,81.78
2022-10-01T20:30:21.913Z,82.02
2022-10-01T20:33:21.290Z,81.31
2022-10-01T20:35:48.406Z,82.25
2022-10-01T20:38:20.502Z,81.54
2022-10-01T20:40:50.822Z,82.68
2022-10-01T20:43:22.022Z,82.03
2022-10-01T20:45:52.352Z,82.63
2022-10-01T20:48:24.023Z,81.66
2022-10-01T20:51:01.310Z,82.62
2022-10-01T20:53:40.036Z,82.67
2022-10-01T20:56:19.317Z,82.85
2022-10-01T20:58:59.707Z,82.49
2022-10-01T21:01:30.427Z,83.13
2022-10-01T21:04:03.473Z,82.83
2022-10-01T21:06:35.319Z,82.79
2022-10-01T21:09:25.148Z,82.66
2022-10-01T21:12:01.963Z,83.58
2022-10-01T21:14:50.382Z,83.48
2022-10-01T21:17:52.737Z,83.83
2022-10-01T21:20:42.445Z,82.92
2022-10-01T21:23:19.466Z,82.68
2022-10-01T21:26:06.943Z,83.16
2022-10-01T21:28:52.992Z,82.89
2022-10-01T21:39:42.245Z,84.16
2022-10-01T21:49:55.938Z,84.19
2022-10-01T21:52:00.192Z,84.32
2022-10-01T21:52:31.798Z,83.98
2022-10-01T21:55:24.849Z,84.17
2022-10-01T21:58:12.215Z,83.42
2022-10-01T22:00:39.829Z,83.51
2022-10-01T22:03:49.910Z,84.84
2022-10-01T22:07:03.345Z,84.55
2022-10-01T22:10:02.107Z,83.82
2022-10-01T22:19:52.007Z,84.15
2022-10-01T22:22:43.468Z,84.42
2022-10-01T22:25:24.521Z,85.16
2022-10-01T22:31:52.151Z,84.39
2022-10-01T22:34:38.595Z,84.98
2022-10-01T22:37:36.286Z,84.79
2022-10-01T22:40:25.906Z,84.92
2022-10-01T22:43:10.456Z,85.35
2022-10-01T22:48:41.877Z,84.61
2022-10-01T22:49:34.717Z,85.11
2022-10-01T22:56:34.838Z,85.30
2022-10-01T23:00:21.164Z,85.14
2022-10-01T23:02:57.417Z,85.37
2022-10-01T23:06:24.904Z,86.14
2022-10-01T23:09:36.001Z,85.10
2022-10-01T23:12:54.018Z,86.12
2022-10-01T23:16:12.190Z,86.03
2022-10-01T23:25:59.473Z,85.87
2022-10-01T23:28:39.977Z,86.38
2022-10-01T23:31:18.446Z,86.75
2022-10-01T23:34:09.514Z,86.26
2022-10-01T23:36:49.613Z,86.60
2022-10-01T23:39:43.288Z,86.33
2022-10-01T23:42:32.446Z,86.71
2022-10-01T23:45:23.447Z,86.66
2022-10-01T23:48:20.686Z,86.72
2022-10-01T23:50:57.841Z,86.79
2022-10-01T23:53:58.336Z,86.62
2022-10-01T23:56:48.759Z,86.38
2022-10-01T23:59:26.834Z,86.32
